Time;durP1;ratioP1;P1;durP2;ratioP2;P2;SDS_P1;SDS_P2;PMS_P1;PMS_P2;Temp;Humidity;BMP_temperature;BMP_pressure;BME280_temperature;BME280_humidity;BME280_pressure;Samples;Min_cycle;Max_cycle;Signal;HPM_P1;HPM_P2
2022/07/11 00:02:19;;;;;;;;;;;;;;;;;;5073086;28;19996;-84
2022/07/11 00:04:46;;;;;;;;;;;;;;;;;;5073134;28;19921;-84
2022/07/11 00:07:12;;;;;;;;;;;;;;;;;;5074683;28;19917;-85
2022/07/11 00:09:38;;;;;;;;;;;;;;;;;;5073237;28;19967;-85
2022/07/11 00:12:13;;;;;;;;;;;;;;;;;;5069591;28;19924;-84
2022/07/11 00:14:39;;;;;;;;;;;;;;;;;;5069201;28;19916;-84
2022/07/11 00:17:05;;;;;;;;;;;;;;;;;;5069998;28;19923;-84
2022/07/11 00:19:31;;;;;;;;;;;;;;;;;;5073849;28;19916;-84
2022/07/11 00:21:56;;;;;;;;;;;;;;;;;;5072033;28;19927;-84
2022/07/11 00:24:24;;;;;;;;;;;;;;;;;;5071398;28;19924;-84
2022/07/11 00:26:50;;;;;;;;;;;;;;;;;;5073616;28;19917;-84
2022/07/11 00:29:25;;;;;;;;;;;;;;;;;;5070878;28;19936;-84
2022/07/11 00:31:53;;;;;;;;;;;;;;;;;;5072765;28;19917;-84
2022/07/11 00:34:19;;;;;;;;;;;;;;;;;;5072229;28;19917;-85
2022/07/11 00:36:44;;;;;;;;;;;;;;;;;;5075354;28;19916;-84
2022/07/11 00:39:09;;;;;;;;;;;;;;;;;;5073220;28;19976;-84
2022/07/11 00:41:35;;;;;;;;;;;;;;;;;;5072637;28;19924;-85
2022/07/11 00:44:03;;;;;;;;;;;;;;;;;;5074032;28;19917;-84
2022/07/11 00:46:29;;;;;;;;;;;;;;;;;;5068888;28;19925;-84
2022/07/11 00:48:55;;;;;;;;;;;;;;;;;;5070426;28;19923;-85
2022/07/11 00:51:21;;;;;;;;;;;;;;;;;;5072056;28;19956;-83
2022/07/11 00:53:51;;;;;;;;;;;;;;;;;;5073328;28;19928;-84
2022/07/11 00:56:19;;;;;;;;;;;;;;;;;;5070853;28;19948;-82
2022/07/11 00:58:49;;;;;;;;;;;;;;;;;;5065886;28;19927;-83
2022/07/11 01:01:14;;;;;;;;;;;;;;;;;;5066731;28;19917;-83
2022/07/11 01:03:46;;;;;;;;;;;;;;;;;;5067303;28;19916;-83
2022/07/11 01:06:26;;;;;;;;;;;;;;;;;;5069300;28;19921;-83
2022/07/11 01:08:51;;;;;;;;;;;;;;;;;;5067235;28;20003;-84
2022/07/11 01:11:18;;;;;;;;;;;;;;;;;;5065668;28;19917;-83
2022/07/11 01:13:44;;;;;;;;;;;;;;;;;;5073248;28;19917;-83
2022/07/11 01:16:11;;;;;;;;;;;;;;;;;;5076227;28;19963;-83
2022/07/11 01:18:36;;;;;;;;;;;;;;;;;;5074333;28;19920;-82
2022/07/11 01:21:06;;;;;;;;;;;;;;;;;;5067475;28;19917;-83
2022/07/11 01:23:37;;;;;;;;;;;;;;;;;;5069546;28;19917;-84
2022/07/11 01:26:03;;;;;;;;;;;;;;;;;;5068944;28;20019;-82
2022/07/11 01:28:34;;;;;;;;;;;;;;;;;;5067206;28;19970;-83
2022/07/11 01:31:00;;;;;;;;;;;;;;;;;;5067507;28;19929;-83
2022/07/11 01:33:27;;;;;;;;;;;;;;;;;;5066930;28;20398;-82
2022/07/11 01:35:52;;;;;;;;;;;;;;;;;;5069401;28;19917;-84
2022/07/11 01:38:17;;;;;;;;;;;;;;;;;;5067303;28;19976;-83
2022/07/11 01:40:43;;;;;;;;;;;;;;;;;;5067838;28;19917;-83
2022/07/11 01:43:08;;;;;;;;;;;;;;;;;;5077483;28;20283;-82
2022/07/11 01:45:34;;;;;;;;;;;;;;;;;;5088783;28;19913;-82
2022/07/11 01:47:59;;;;;;;;;;;;;;;;;;5088958;28;19976;-84
2022/07/11 01:50:48;;;;;;;;;;;;;;;;;;5091268;28;19920;-82
2022/07/11 01:53:14;;;;;;;;;;;;;;;;;;5090266;28;19947;-83
2022/07/11 01:55:39;;;;;;;;;;;;;;;;;;5093527;28;19917;-83
2022/07/11 01:58:05;;;;;;;;;;;;;;;;;;5087061;28;19919;-83
2022/07/11 02:00:30;;;;;;;;;;;;;;;;;;5093247;28;19928;-83
2022/07/11 02:02:56;;;;;;;;;;;;;;;;;;5093284;28;20025;-83
2022/07/11 02:05:21;;;;;;;;;;;;;;;;;;5092386;28;19955;-83
2022/07/11 02:10:30;;;;;;;;;;;;;;;;;;5096037;28;19907;-83
2022/07/11 02:12:58;;;;;;;;;;;;;;;;;;5097903;28;19952;-84
2022/07/11 02:15:23;;;;;;;;;;;;;;;;;;5082982;28;19947;-83
2022/07/11 02:17:49;;;;;;;;;;;;;;;;;;5076652;28;19929;-83
2022/07/11 02:20:14;;;;;;;;;;;;;;;;;;5073082;28;19960;-83
2022/07/11 02:22:39;;;;;;;;;;;;;;;;;;5083468;28;19970;-83
2022/07/11 02:25:05;;;;;;;;;;;;;;;;;;5085856;28;20376;-82
2022/07/11 02:27:30;;;;;;;;;;;;;;;;;;5074989;28;19925;-83
2022/07/11 02:29:56;;;;;;;;;;;;;;;;;;5064913;28;19924;-84
2022/07/11 02:32:21;;;;;;;;;;;;;;;;;;5062934;28;19984;-83
2022/07/11 02:34:47;;;;;;;;;;;;;;;;;;5067674;28;20011;-83
2022/07/11 02:37:12;;;;;;;;;;;;;;;;;;5064433;28;19933;-83
2022/07/11 02:39:37;;;;;;;;;;;;;;;;;;5066375;28;19920;-82
2022/07/11 02:42:03;;;;;;;;;;;;;;;;;;5067949;28;19917;-83
2022/07/11 02:44:28;;;;;;;;;;;;;;;;;;5070332;28;19917;-84
2022/07/11 02:46:57;;;;;;;;;;;;;;;;;;5070333;28;19917;-83
2022/07/11 02:49:23;;;;;;;;;;;;;;;;;;5065401;28;19943;-82
2022/07/11 02:51:48;;;;;;;;;;;;;;;;;;5063850;28;19917;-83
2022/07/11 02:54:16;;;;;;;;;;;;;;;;;;5066124;28;20285;-82
2022/07/11 02:56:42;;;;;;;;;;;;;;;;;;5065516;28;19917;-83
2022/07/11 02:59:07;;;;;;;;;;;;;;;;;;5070908;28;19924;-83
2022/07/11 03:01:34;;;;;;;;;;;;;;;;;;5062446;28;20353;-82
2022/07/11 03:03:59;;;;;;;;;;;;;;;;;;5068339;28;19924;-84
2022/07/11 03:06:25;;;;;;;;;;;;;;;;;;5058456;28;19972;-84
2022/07/11 03:08:50;;;;;;;;;;;;;;;;;;5053344;28;20428;-85
2022/07/11 03:11:19;;;;;;;;;;;;;;;;;;5054100;28;19927;-84
2022/07/11 03:13:45;;;;;;;;;;;;;;;;;;5055078;28;19917;-83
2022/07/11 03:16:11;;;;;;;;;;;;;;;;;;5059482;28;20364;-83
2022/07/11 03:18:37;;;;;;;;;;;;;;;;;;5069536;28;19921;-83
2022/07/11 03:21:08;;;;;;;;;;;;;;;;;;5072100;28;19923;-83
2022/07/11 03:23:36;;;;;;;;;;;;;;;;;;5072231;28;19924;-83
2022/07/11 03:26:02;;;;;;;;;;;;;;;;;;5074861;28;20288;-84
2022/07/11 03:28:28;;;;;;;;;;;;;;;;;;5074154;28;19917;-83
2022/07/11 03:30:54;;;;;;;;;;;;;;;;;;5070479;28;20701;-84
2022/07/11 03:33:20;;;;;;;;;;;;;;;;;;5074051;28;19925;-84
2022/07/11 03:35:46;;;;;;;;;;;;;;;;;;5070286;28;19984;-84
2022/07/11 03:38:15;;;;;;;;;;;;;;;;;;5073456;28;19913;-83
2022/07/11 03:40:41;;;;;;;;;;;;;;;;;;5075100;28;19976;-84
2022/07/11 03:43:06;;;;;;;;;;;;;;;;;;5075441;28;19928;-83
2022/07/11 03:45:38;;;;;;;;;;;;;;;;;;5072174;28;19912;-84
2022/07/11 03:48:03;;;;;;;;;;;;;;;;;;5064485;28;19916;-83
2022/07/11 03:50:29;;;;;;;;;;;;;;;;;;5062948;28;19923;-83
2022/07/11 03:52:56;;;;;;;;;;;;;;;;;;5061919;28;19919;-83
2022/07/11 03:55:21;;;;;;;;;;;;;;;;;;5066841;28;20011;-84
2022/07/11 03:57:47;;;;;;;;;;;;;;;;;;5070317;28;19924;-83
2022/07/11 04:00:14;;;;;;;;;;;;;;;;;;5070271;28;19936;-84
2022/07/11 04:02:40;;;;;;;;;;;;;;;;;;5062486;28;19917;-86
2022/07/11 04:05:07;;;;;;;;;;;;;;;;;;5064432;28;19923;-85
2022/07/11 04:07:32;;;;;;;;;;;;;;;;;;5059805;28;20360;-83
2022/07/11 04:09:58;;;;;;;;;;;;;;;;;;5058331;28;19955;-86
2022/07/11 04:12:23;;;;;;;;;;;;;;;;;;5058023;28;19927;-83
2022/07/11 04:14:49;;;;;;;;;;;;;;;;;;5058153;28;20269;-83
2022/07/11 04:17:14;;;;;;;;;;;;;;;;;;5056163;28;19924;-83
2022/07/11 04:19:40;;;;;;;;;;;;;;;;;;5059406;28;19924;-83
2022/07/11 04:22:05;;;;;;;;;;;;;;;;;;5063170;28;19916;-90
2022/07/11 04:24:31;;;;;;;;;;;;;;;;;;5084643;28;19971;-85
2022/07/11 04:26:59;;;;;;;;;;;;;;;;;;5088092;28;20299;-84
2022/07/11 04:29:25;;;;;;;;;;;;;;;;;;5083614;28;19904;-83
2022/07/11 04:31:50;;;;;;;;;;;;;;;;;;5071891;28;19936;-89
2022/07/11 04:34:17;;;;;;;;;;;;;;;;;;5062074;28;19968;-84
2022/07/11 04:36:44;;;;;;;;;;;;;;;;;;5053206;28;19917;-84
2022/07/11 04:39:12;;;;;;;;;;;;;;;;;;5054907;28;19924;-86
2022/07/11 04:41:41;;;;;;;;;;;;;;;;;;5067728;28;19916;-83
2022/07/11 04:44:09;;;;;;;;;;;;;;;;;;5066190;28;19917;-88
2022/07/11 04:46:34;;;;;;;;;;;;;;;;;;5068267;28;19923;-84
2022/07/11 04:49:00;;;;;;;;;;;;;;;;;;5060788;28;19921;-84
2022/07/11 04:51:28;;;;;;;;;;;;;;;;;;5069118;28;19917;-84
2022/07/11 04:53:53;;;;;;;;;;;;;;;;;;5057660;28;19917;-84
2022/07/11 04:56:18;;;;;;;;;;;;;;;;;;5066054;28;19928;-84
2022/07/11 04:58:45;;;;;;;;;;;;;;;;;;5066603;28;20364;-89
2022/07/11 05:01:11;;;;;;;;;;;;;;;;;;5057374;28;19928;-84
2022/07/11 05:03:37;;;;;;;;;;;;;;;;;;5056550;28;20399;-85
2022/07/11 05:06:04;;;;;;;;;;;;;;;;;;5056582;28;19913;-83
2022/07/11 05:08:29;;;;;;;;;;;;;;;;;;5055991;28;19917;-83
2022/07/11 05:10:55;;;;;;;;;;;;;;;;;;5059175;28;19983;-84
2022/07/11 05:13:30;;;;;;;;;;;;;;;;;;5064407;28;19947;-83
2022/07/11 05:15:55;;;;;;;;;;;;;;;;;;5046977;28;19932;-85
2022/07/11 05:18:21;;;;;;;;;;;;;;;;;;5050564;28;19917;-87
2022/07/11 05:20:48;;;;;;;;;;;;;;;;;;5050800;28;20384;-85
2022/07/11 05:23:13;;;;;;;;;;;;;;;;;;5048157;28;19990;-85
2022/07/11 05:25:39;;;;;;;;;;;;;;;;;;5046640;28;19921;-92
2022/07/11 05:28:04;;;;;;;;;;;;;;;;;;5045914;28;19917;-87
2022/07/11 05:30:30;;;;;;;;;;;;;;;;;;5050278;28;19921;-85
2022/07/11 05:32:55;;;;;;;;;;;;;;;;;;5050649;28;19924;-86
2022/07/11 05:35:20;;;;;;;;;;;;;;;;;;5042043;28;19925;-85
2022/07/11 05:37:46;;;;;;;;;;;;;;;;;;5037379;28;19921;-93
2022/07/11 05:40:11;;;;;;;;;;;;;;;;;;5042515;28;19924;-88
2022/07/11 05:42:37;;;;;;;;;;;;;;;;;;5083514;28;20015;-85
2022/07/11 05:45:03;;;;;;;;;;;;;;;;;;5076311;28;19916;-83
2022/07/11 05:47:29;;;;;;;;;;;;;;;;;;5080922;28;19920;-86
2022/07/11 05:49:56;;;;;;;;;;;;;;;;;;5079571;28;19916;-92
2022/07/11 05:52:22;;;;;;;;;;;;;;;;;;5077508;28;19917;-85
2022/07/11 05:54:47;;;;;;;;;;;;;;;;;;5077155;28;19924;-84
2022/07/11 05:57:21;;;;;;;;;;;;;;;;;;5067837;28;19916;-84
2022/07/11 05:59:47;;;;;;;;;;;;;;;;;;5075278;28;19920;-88
2022/07/11 06:02:12;;;;;;;;;;;;;;;;;;5058585;28;19927;-86
2022/07/11 06:04:38;;;;;;;;;;;;;;;;;;5067411;28;20370;-84
2022/07/11 06:07:04;;;;;;;;;;;;;;;;;;5068704;28;19956;-85
2022/07/11 06:09:29;;;;;;;;;;;;;;;;;;5054596;28;19916;-84
2022/07/11 06:11:55;;;;;;;;;;;;;;;;;;5055098;28;19921;-84
2022/07/11 06:14:21;;;;;;;;;;;;;;;;;;5055264;28;20284;-85
2022/07/11 06:16:46;;;;;;;;;;;;;;;;;;5053340;28;20365;-85
2022/07/11 06:19:14;;;;;;;;;;;;;;;;;;5055706;28;19917;-84
2022/07/11 06:21:40;;;;;;;;;;;;;;;;;;5056179;28;20422;-84
2022/07/11 06:24:05;;;;;;;;;;;;;;;;;;5055761;28;19917;-86
2022/07/11 06:26:31;;;;;;;;;;;;;;;;;;5065868;28;19916;-87
2022/07/11 06:28:57;;;;;;;;;;;;;;;;;;5062037;28;19951;-83
2022/07/11 06:31:23;;;;;;;;;;;;;;;;;;5071377;28;19928;-85
2022/07/11 06:33:54;;;;;;;;;;;;;;;;;;5069919;28;20019;-87
2022/07/11 06:36:23;;;;;;;;;;;;;;;;;;5075004;28;19920;-85
2022/07/11 06:38:49;;;;;;;;;;;;;;;;;;5071625;28;20015;-90
2022/07/11 06:41:15;;;;;;;;;;;;;;;;;;5070293;28;19917;-92
2022/07/11 06:43:40;;;;;;;;;;;;;;;;;;5054991;28;19917;-84
2022/07/11 06:46:06;;;;;;;;;;;;;;;;;;5055022;28;20343;-87
2022/07/11 06:48:31;;;;;;;;;;;;;;;;;;5055172;28;19917;-86
2022/07/11 06:50:57;;;;;;;;;;;;;;;;;;5059205;28;19921;-86
2022/07/11 06:53:22;;;;;;;;;;;;;;;;;;5065114;28;19920;-86
2022/07/11 06:55:49;;;;;;;;;;;;;;;;;;5056494;28;19920;-83
2022/07/11 06:58:32;;;;;;;;;;;;;;;;;;5056135;28;20289;-86
2022/07/11 07:01:04;;;;;;;;;;;;;;;;;;5054769;28;19917;-89
2022/07/11 07:03:32;;;;;;;;;;;;;;;;;;5062619;28;19916;-89
2022/07/11 07:05:58;;;;;;;;;;;;;;;;;;5056000;28;19921;-85
2022/07/11 07:08:28;;;;;;;;;;;;;;;;;;5055870;28;19990;-83
2022/07/11 07:10:53;;;;;;;;;;;;;;;;;;5058536;28;20015;-84
2022/07/11 07:13:20;;;;;;;;;;;;;;;;;;5060532;28;19920;-83
2022/07/11 07:15:46;;;;;;;;;;;;;;;;;;5058374;28;19916;-88
2022/07/11 07:18:12;;;;;;;;;;;;;;;;;;5060711;28;19939;-84
2022/07/11 07:20:37;;;;;;;;;;;;;;;;;;5063375;28;19921;-85
2022/07/11 07:23:02;;;;;;;;;;;;;;;;;;5065712;28;19940;-88
2022/07/11 07:25:28;;;;;;;;;;;;;;;;;;5057717;28;19952;-85
2022/07/11 07:27:53;;;;;;;;;;;;;;;;;;5058018;28;20016;-85
2022/07/11 07:30:19;;;;;;;;;;;;;;;;;;5056246;28;19921;-84
2022/07/11 07:32:44;;;;;;;;;;;;;;;;;;5052384;28;19928;-85
2022/07/11 07:35:09;;;;;;;;;;;;;;;;;;5055630;28;19927;-85
2022/07/11 07:37:39;;;;;;;;;;;;;;;;;;5054386;28;19921;-87
2022/07/11 07:40:05;;;;;;;;;;;;;;;;;;5050231;28;19927;-84
2022/07/11 07:42:31;;;;;;;;;;;;;;;;;;5054438;28;19983;-85
2022/07/11 07:44:56;;;;;;;;;;;;;;;;;;5046677;28;19924;-84
2022/07/11 07:47:22;;;;;;;;;;;;;;;;;;5052613;28;20007;-83
2022/07/11 07:49:47;;;;;;;;;;;;;;;;;;5055668;28;20431;-85
2022/07/11 07:52:13;;;;;;;;;;;;;;;;;;5054636;28;19923;-84
2022/07/11 07:54:39;;;;;;;;;;;;;;;;;;5044456;28;19943;-84
2022/07/11 07:57:04;;;;;;;;;;;;;;;;;;5044718;28;19921;-84
2022/07/11 07:59:30;;;;;;;;;;;;;;;;;;5046533;28;20372;-85
2022/07/11 08:01:55;;;;;;;;;;;;;;;;;;5051607;28;20019;-85
2022/07/11 08:04:21;;;;;;;;;;;;;;;;;;5052692;28;19917;-85
2022/07/11 08:06:46;;;;;;;;;;;;;;;;;;5052362;28;19990;-85
2022/07/11 08:09:12;;;;;;;;;;;;;;;;;;5055761;28;19942;-84
2022/07/11 08:11:37;;;;;;;;;;;;;;;;;;5062338;28;19917;-85
2022/07/11 08:14:03;;;;;;;;;;;;;;;;;;5053771;28;19947;-85
2022/07/11 08:16:29;;;;;;;;;;;;;;;;;;5051134;28;19945;-85
2022/07/11 08:18:55;;;;;;;;;;;;;;;;;;5043181;28;19971;-85
2022/07/11 08:21:22;;;;;;;;;;;;;;;;;;5050796;28;19983;-85
2022/07/11 08:23:49;;;;;;;;;;;;;;;;;;5048106;28;19921;-87
2022/07/11 08:26:15;;;;;;;;;;;;;;;;;;5043411;28;19971;-85
2022/07/11 08:28:40;;;;;;;;;;;;;;;;;;5043236;28;20340;-85
2022/07/11 08:31:06;;;;;;;;;;;;;;;;;;5044282;28;19988;-85
2022/07/11 08:33:31;;;;;;;;;;;;;;;;;;5044991;28;20369;-85
2022/07/11 08:35:56;;;;;;;;;;;;;;;;;;5065005;28;20051;-84
2022/07/11 08:38:22;;;;;;;;;;;;;;;;;;5053967;28;20009;-84
2022/07/11 08:40:51;;;;;;;;;;;;;;;;;;5060569;28;20054;-85
2022/07/11 08:43:17;;;;;;;;;;;;;;;;;;5062147;28;20015;-85
2022/07/11 08:45:43;;;;;;;;;;;;;;;;;;5062314;28;19917;-84
2022/07/11 08:48:09;;;;;;;;;;;;;;;;;;5060692;28;19927;-84
2022/07/11 08:50:35;;;;;;;;;;;;;;;;;;5080541;28;19924;-85
2022/07/11 08:53:02;;;;;;;;;;;;;;;;;;5079222;28;19917;-84
2022/07/11 08:55:27;;;;;;;;;;;;;;;;;;5072350;28;20018;-84
2022/07/11 08:57:53;;;;;;;;;;;;;;;;;;5053612;28;19956;-87
2022/07/11 09:00:19;;;;;;;;;;;;;;;;;;5068732;28;20334;-86
2022/07/11 09:02:45;;;;;;;;;;;;;;;;;;5071259;28;19923;-84
2022/07/11 09:05:11;;;;;;;;;;;;;;;;;;5062801;28;20295;-85
2022/07/11 09:07:49;;;;;;;;;;;;;;;;;;5065774;28;19931;-84
2022/07/11 09:10:15;;;;;;;;;;;;;;;;;;5074430;28;19920;-85
2022/07/11 09:12:59;;;;;;;;;;;;;;;;;;5069716;28;20376;-84
2022/07/11 09:15:39;;;;;;;;;;;;;;;;;;5051785;28;19964;-84
2022/07/11 09:18:06;;;;;;;;;;;;;;;;;;5060372;28;19924;-84
2022/07/11 09:26:18;;;;;;;;;;;;;;;;;;5055882;28;19982;-84
2022/07/11 09:28:57;;;;;;;;;;;;;;;;;;5054722;28;19921;-85
2022/07/11 09:31:23;;;;;;;;;;;;;;;;;;5054901;28;20406;-83
2022/07/11 09:34:01;;;;;;;;;;;;;;;;;;5056301;28;19921;-84
2022/07/11 09:36:36;;;;;;;;;;;;;;;;;;5055820;28;19968;-84
2022/07/11 09:39:06;;;;;;;;;;;;;;;;;;5055524;28;20357;-85
2022/07/11 09:41:32;;;;;;;;;;;;;;;;;;5055626;28;19963;-84
2022/07/11 09:44:07;;;;;;;;;;;;;;;;;;5054894;28;19944;-84
2022/07/11 09:46:33;;;;;;;;;;;;;;;;;;5055050;28;19916;-84
2022/07/11 09:49:01;;;;;;;;;;;;;;;;;;5054622;28;20364;-83
2022/07/11 09:51:27;;;;;;;;;;;;;;;;;;5053075;28;20438;-85
2022/07/11 09:53:58;;;;;;;;;;;;;;;;;;5055171;28;19921;-83
2022/07/11 09:56:24;;;;;;;;;;;;;;;;;;5054778;28;19917;-83
2022/07/11 09:58:58;;;;;;;;;;;;;;;;;;5055206;28;20019;-85
2022/07/11 10:01:24;;;;;;;;;;;;;;;;;;5055446;28;19959;-84
2022/07/11 10:03:49;;;;;;;;;;;;;;;;;;5054242;28;19916;-85
2022/07/11 10:06:14;;;;;;;;;;;;;;;;;;5055262;28;19916;-84
2022/07/11 10:08:40;;;;;;;;;;;;;;;;;;5059097;28;19917;-85
2022/07/11 10:11:08;;;;;;;;;;;;;;;;;;5054788;28;20400;-84
2022/07/11 10:13:34;;;;;;;;;;;;;;;;;;5057206;28;20005;-86
2022/07/11 10:16:04;;;;;;;;;;;;;;;;;;5059023;28;20066;-83
2022/07/11 10:18:35;;;;;;;;;;;;;;;;;;5066029;28;19920;-85
2022/07/11 10:21:14;;;;;;;;;;;;;;;;;;5063450;28;19923;-84
2022/07/11 10:23:44;;;;;;;;;;;;;;;;;;5060207;28;19916;-84
2022/07/11 10:26:12;;;;;;;;;;;;;;;;;;5059289;28;19916;-84
2022/07/11 10:28:59;;;;;;;;;;;;;;;;;;5059666;28;19921;-84
2022/07/11 10:31:28;;;;;;;;;;;;;;;;;;5061431;28;19974;-85
2022/07/11 10:34:04;;;;;;;;;;;;;;;;;;5055939;28;19920;-85
2022/07/11 10:36:31;;;;;;;;;;;;;;;;;;5040675;28;20031;-85
2022/07/11 10:39:28;;;;;;;;;;;;;;;;;;5065387;28;19921;-86
2022/07/11 10:41:55;;;;;;;;;;;;;;;;;;5072086;28;19923;-85
2022/07/11 10:44:22;;;;;;;;;;;;;;;;;;5070452;28;19971;-85
2022/07/11 10:46:48;;;;;;;;;;;;;;;;;;5067550;28;19928;-84
2022/07/11 10:49:17;;;;;;;;;;;;;;;;;;5062599;28;19921;-84
2022/07/11 10:51:59;;;;;;;;;;;;;;;;;;5062621;28;19916;-87
2022/07/11 10:54:33;;;;;;;;;;;;;;;;;;5061987;28;20327;-83
2022/07/11 10:57:08;;;;;;;;;;;;;;;;;;5057120;28;19917;-86
2022/07/11 10:59:33;;;;;;;;;;;;;;;;;;5056071;28;19917;-85
2022/07/11 11:02:10;;;;;;;;;;;;;;;;;;5054603;28;19967;-86
2022/07/11 11:04:43;;;;;;;;;;;;;;;;;;5059764;28;19932;-86
2022/07/11 11:07:27;;;;;;;;;;;;;;;;;;5055329;28;19978;-86
2022/07/11 11:09:53;;;;;;;;;;;;;;;;;;5053488;28;19917;-85
2022/07/11 11:12:18;;;;;;;;;;;;;;;;;;5059026;28;19917;-84
2022/07/11 11:14:43;;;;;;;;;;;;;;;;;;5062746;28;19923;-85
2022/07/11 11:17:28;;;;;;;;;;;;;;;;;;5061658;28;19917;-84
2022/07/11 11:19:55;;;;;;;;;;;;;;;;;;5063900;28;19924;-92
2022/07/11 11:22:22;;;;;;;;;;;;;;;;;;5061869;28;19986;-85
2022/07/11 11:24:55;;;;;;;;;;;;;;;;;;5059620;28;19921;-90
2022/07/11 11:27:21;;;;;;;;;;;;;;;;;;5059338;28;19920;-85
2022/07/11 11:29:47;;;;;;;;;;;;;;;;;;5060134;28;19929;-85
2022/07/11 11:32:13;;;;;;;;;;;;;;;;;;5057279;28;19923;-85
2022/07/11 11:34:39;;;;;;;;;;;;;;;;;;5057999;28;19952;-85
2022/07/11 11:37:05;;;;;;;;;;;;;;;;;;5058365;28;19917;-85
2022/07/11 11:39:34;;;;;;;;;;;;;;;;;;5059584;28;19923;-86
2022/07/11 11:42:17;;;;;;;;;;;;;;;;;;5059721;28;19916;-84
2022/07/11 11:44:54;;;;;;;;;;;;;;;;;;5061077;28;19927;-84
2022/07/11 11:47:20;;;;;;;;;;;;;;;;;;5048913;28;20439;-85
2022/07/11 11:49:48;;;;;;;;;;;;;;;;;;5070335;28;19921;-87
2022/07/11 11:52:14;;;;;;;;;;;;;;;;;;5068044;28;19978;-85
2022/07/11 11:54:40;;;;;;;;;;;;;;;;;;5067208;28;19921;-87
2022/07/11 11:57:11;;;;;;;;;;;;;;;;;;5068339;28;19964;-90
2022/07/11 11:59:37;;;;;;;;;;;;;;;;;;5076804;28;19916;-89
2022/07/11 12:02:02;;;;;;;;;;;;;;;;;;5065648;28;19905;-84
2022/07/11 12:04:30;;;;;;;;;;;;;;;;;;5066467;28;19923;-84
2022/07/11 12:06:55;;;;;;;;;;;;;;;;;;5062752;28;19924;-86
2022/07/11 12:09:46;;;;;;;;;;;;;;;;;;5059889;28;19925;-83
2022/07/11 12:14:54;;;;;;;;;;;;;;;;;;5063839;28;19923;-84
2022/07/11 12:17:28;;;;;;;;;;;;;;;;;;5065111;28;19917;-86
2022/07/11 12:19:54;;;;;;;;;;;;;;;;;;5045197;28;19983;-84
2022/07/11 12:22:30;;;;;;;;;;;;;;;;;;5043542;28;19925;-83
2022/07/11 12:24:56;;;;;;;;;;;;;;;;;;5045244;28;20394;-83
2022/07/11 12:27:24;;;;;;;;;;;;;;;;;;5043093;28;19921;-83
2022/07/11 12:29:52;;;;;;;;;;;;;;;;;;5044136;28;19921;-86
2022/07/11 12:32:18;;;;;;;;;;;;;;;;;;5069872;28;19924;-85
2022/07/11 12:34:44;;;;;;;;;;;;;;;;;;5078643;28;19923;-85
2022/07/11 12:37:14;;;;;;;;;;;;;;;;;;5062971;28;19921;-91
2022/07/11 12:39:53;;;;;;;;;;;;;;;;;;5045945;28;19988;-84
2022/07/11 12:42:24;;;;;;;;;;;;;;;;;;5049332;28;19920;-92
2022/07/11 12:45:07;;;;;;;;;;;;;;;;;;5066978;28;19921;-84
2022/07/11 12:47:33;;;;;;;;;;;;;;;;;;5068387;28;19928;-85
2022/07/11 12:49:58;;;;;;;;;;;;;;;;;;5067093;28;19917;-84
2022/07/11 12:52:35;;;;;;;;;;;;;;;;;;5067527;28;20020;-84
2022/07/11 12:55:01;;;;;;;;;;;;;;;;;;5071648;28;19933;-85
2022/07/11 12:57:26;;;;;;;;;;;;;;;;;;5070106;28;19912;-87
2022/07/11 12:59:52;;;;;;;;;;;;;;;;;;5071122;28;19942;-85
2022/07/11 13:02:17;;;;;;;;;;;;;;;;;;5070345;28;20351;-89
2022/07/11 13:04:49;;;;;;;;;;;;;;;;;;5072843;28;19920;-86
2022/07/11 13:10:23;;;;;;;;;;;;;;;;;;5074388;28;19939;-89
2022/07/11 13:12:49;;;;;;;;;;;;;;;;;;5072753;28;19944;-88
2022/07/11 13:15:17;;;;;;;;;;;;;;;;;;5071359;28;19938;-86
2022/07/11 13:17:56;;;;;;;;;;;;;;;;;;5071191;28;19917;-85
2022/07/11 13:20:27;;;;;;;;;;;;;;;;;;5070204;28;19964;-88
2022/07/11 13:23:02;;;;;;;;;;;;;;;;;;5071815;28;19920;-86
2022/07/11 13:25:29;;;;;;;;;;;;;;;;;;5071126;28;19939;-86
2022/07/11 13:27:56;;;;;;;;;;;;;;;;;;5070983;28;19928;-85
2022/07/11 13:30:29;;;;;;;;;;;;;;;;;;5064101;28;19932;-85
2022/07/11 13:32:55;;;;;;;;;;;;;;;;;;5064721;28;19928;-88
2022/07/11 13:35:22;;;;;;;;;;;;;;;;;;5063671;28;19923;-85
2022/07/11 13:37:48;;;;;;;;;;;;;;;;;;5063981;28;20015;-86
2022/07/11 13:40:15;;;;;;;;;;;;;;;;;;5062578;28;19916;-87
2022/07/11 13:42:41;;;;;;;;;;;;;;;;;;5064334;28;19963;-85
2022/07/11 13:45:10;;;;;;;;;;;;;;;;;;5069571;28;19977;-86
2022/07/11 13:47:37;;;;;;;;;;;;;;;;;;5065420;28;19921;-86
2022/07/11 13:50:07;;;;;;;;;;;;;;;;;;5047117;28;19924;-85
2022/07/11 13:52:35;;;;;;;;;;;;;;;;;;5042480;28;20384;-89
2022/07/11 13:55:02;;;;;;;;;;;;;;;;;;5043483;28;19921;-86
2022/07/11 13:57:28;;;;;;;;;;;;;;;;;;5043935;28;19971;-85
2022/07/11 13:59:53;;;;;;;;;;;;;;;;;;5039794;28;19921;-89
2022/07/11 14:02:22;;;;;;;;;;;;;;;;;;5038871;28;19917;-89
2022/07/11 14:04:48;;;;;;;;;;;;;;;;;;5040811;28;19967;-86
2022/07/11 14:07:13;;;;;;;;;;;;;;;;;;5047486;28;19917;-86
2022/07/11 14:09:39;;;;;;;;;;;;;;;;;;5049032;28;19977;-84
2022/07/11 14:12:05;;;;;;;;;;;;;;;;;;5054301;28;19974;-85
2022/07/11 14:14:31;;;;;;;;;;;;;;;;;;5072414;28;19916;-89
2022/07/11 14:16:56;;;;;;;;;;;;;;;;;;5073189;28;19971;-84
2022/07/11 14:19:22;;;;;;;;;;;;;;;;;;5058270;28;20019;-86
2022/07/11 14:21:47;;;;;;;;;;;;;;;;;;5055901;28;19929;-84
2022/07/11 14:24:13;;;;;;;;;;;;;;;;;;5043658;28;19932;-83
2022/07/11 14:26:38;;;;;;;;;;;;;;;;;;5067059;28;20387;-86
2022/07/11 14:29:04;;;;;;;;;;;;;;;;;;5076167;28;19932;-83
2022/07/11 14:31:30;;;;;;;;;;;;;;;;;;5084395;28;19921;-85
2022/07/11 14:33:57;;;;;;;;;;;;;;;;;;5086049;28;19924;-85
2022/07/11 14:36:24;;;;;;;;;;;;;;;;;;5083263;28;19924;-84
2022/07/11 14:38:49;;;;;;;;;;;;;;;;;;5080378;28;20299;-84
2022/07/11 14:41:17;;;;;;;;;;;;;;;;;;5076193;28;19923;-86
2022/07/11 14:43:43;;;;;;;;;;;;;;;;;;5059167;28;19917;-85
2022/07/11 14:46:09;;;;;;;;;;;;;;;;;;5061438;28;20015;-85
2022/07/11 14:48:35;;;;;;;;;;;;;;;;;;5072573;28;19939;-85
2022/07/11 14:51:00;;;;;;;;;;;;;;;;;;5074693;28;19917;-85
2022/07/11 14:53:26;;;;;;;;;;;;;;;;;;5068758;28;19975;-87
2022/07/11 14:55:52;;;;;;;;;;;;;;;;;;5063507;28;19928;-84
2022/07/11 14:58:17;;;;;;;;;;;;;;;;;;5079847;28;19923;-84
2022/07/11 15:00:46;;;;;;;;;;;;;;;;;;5084837;28;19916;-86
2022/07/11 15:05:55;;;;;;;;;;;;;;;;;;5069899;28;19907;-83
2022/07/11 15:13:49;;;;;;;;;;;;;;;;;;5066682;28;19923;-84
2022/07/11 15:16:15;;;;;;;;;;;;;;;;;;5066496;28;19916;-85
2022/07/11 15:18:40;;;;;;;;;;;;;;;;;;5063829;28;19916;-85
2022/07/11 15:21:06;;;;;;;;;;;;;;;;;;5071908;28;19935;-84
2022/07/11 15:23:32;;;;;;;;;;;;;;;;;;5073202;28;19921;-86
2022/07/11 15:26:09;;;;;;;;;;;;;;;;;;5070814;28;19917;-86
2022/07/11 15:28:40;;;;;;;;;;;;;;;;;;5068341;28;19921;-85
2022/07/11 15:31:05;;;;;;;;;;;;;;;;;;5076031;28;20021;-88
2022/07/11 15:33:31;;;;;;;;;;;;;;;;;;5072017;28;19917;-84
2022/07/11 15:35:56;;;;;;;;;;;;;;;;;;5075020;28;19943;-86
2022/07/11 15:38:22;;;;;;;;;;;;;;;;;;5074607;28;19901;-84
2022/07/11 15:40:47;;;;;;;;;;;;;;;;;;5075986;28;19943;-85
2022/07/11 15:43:13;;;;;;;;;;;;;;;;;;5075070;28;19927;-87
2022/07/11 15:45:39;;;;;;;;;;;;;;;;;;5073823;28;19921;-91
2022/07/11 15:48:06;;;;;;;;;;;;;;;;;;5075646;28;19924;-87
2022/07/11 15:50:32;;;;;;;;;;;;;;;;;;5075648;28;19901;-85
2022/07/11 15:53:00;;;;;;;;;;;;;;;;;;5079305;28;19924;-84
2022/07/11 15:55:36;;;;;;;;;;;;;;;;;;5075354;28;19927;-92
2022/07/11 15:58:12;;;;;;;;;;;;;;;;;;5077826;28;19901;-88
2022/07/11 16:00:38;;;;;;;;;;;;;;;;;;5078058;28;19932;-85
2022/07/11 16:03:04;;;;;;;;;;;;;;;;;;5075922;28;19917;-84
2022/07/11 16:05:55;;;;;;;;;;;;;;;;;;5078013;28;19913;-86
2022/07/11 16:08:21;;;;;;;;;;;;;;;;;;5076913;28;19980;-89
2022/07/11 16:10:47;;;;;;;;;;;;;;;;;;5073351;28;19976;-92
2022/07/11 16:13:13;;;;;;;;;;;;;;;;;;5070477;28;19919;-91
2022/07/11 16:15:38;;;;;;;;;;;;;;;;;;5068543;28;19947;-87
2022/07/11 16:18:13;;;;;;;;;;;;;;;;;;5067220;28;20273;-85
2022/07/11 16:20:40;;;;;;;;;;;;;;;;;;5075161;28;19968;-83
2022/07/11 16:23:05;;;;;;;;;;;;;;;;;;5074171;28;19917;-83
2022/07/11 16:25:31;;;;;;;;;;;;;;;;;;5067636;28;20655;-83
2022/07/11 16:27:56;;;;;;;;;;;;;;;;;;5070948;28;19944;-84
2022/07/11 16:30:31;;;;;;;;;;;;;;;;;;5072430;28;19921;-84
2022/07/11 16:32:56;;;;;;;;;;;;;;;;;;5076599;28;19920;-85
2022/07/11 16:35:22;;;;;;;;;;;;;;;;;;5077480;28;19935;-88
2022/07/11 16:37:52;;;;;;;;;;;;;;;;;;5077884;28;19917;-84
2022/07/11 16:43:21;;;;;;;;;;;;;;;;;;5074893;28;19947;-86
2022/07/11 16:45:58;;;;;;;;;;;;;;;;;;5076380;28;19988;-89
2022/07/11 16:48:26;;;;;;;;;;;;;;;;;;5072436;28;19921;-84
2022/07/11 16:50:53;;;;;;;;;;;;;;;;;;5071933;28;19962;-87
2022/07/11 16:53:19;;;;;;;;;;;;;;;;;;5068987;28;19925;-84
2022/07/11 16:55:44;;;;;;;;;;;;;;;;;;5070943;28;19939;-87
2022/07/11 16:58:11;;;;;;;;;;;;;;;;;;5072484;28;19923;-89
2022/07/11 17:00:49;;;;;;;;;;;;;;;;;;5069279;28;19939;-88
2022/07/11 17:03:14;;;;;;;;;;;;;;;;;;5067419;28;19963;-86
2022/07/11 17:05:40;;;;;;;;;;;;;;;;;;5066275;28;19923;-90
2022/07/11 17:10:50;;;;;;;;;;;;;;;;;;5077056;28;20015;-87
2022/07/11 17:13:16;;;;;;;;;;;;;;;;;;5077986;28;19921;-91
2022/07/11 17:15:42;;;;;;;;;;;;;;;;;;5074388;28;19916;-85
2022/07/11 17:18:08;;;;;;;;;;;;;;;;;;5093866;28;19921;-84